sensor_id;sensor_type;location;lat;lon;timestamp;temperature;humidity
1107;DHT22;540;49.448;8.612;2023-06-22T00:00:25;24.60;86.30
1107;DHT22;540;49.448;8.612;2023-06-22T00:02:54;24.70;85.70
1107;DHT22;540;49.448;8.612;2023-06-22T00:05:22;24.70;85.40
1107;DHT22;540;49.448;8.612;2023-06-22T00:07:50;24.80;84.90
1107;DHT22;540;49.448;8.612;2023-06-22T00:10:19;24.80;84.90
1107;DHT22;540;49.448;8.612;2023-06-22T00:12:47;24.90;84.30
1107;DHT22;540;49.448;8.612;2023-06-22T00:15:14;24.90;84.20
1107;DHT22;540;49.448;8.612;2023-06-22T00:17:42;24.90;83.20
1107;DHT22;540;49.448;8.612;2023-06-22T00:20:11;25.00;83.10
1107;DHT22;540;49.448;8.612;2023-06-22T00:22:41;25.00;82.90
1107;DHT22;540;49.448;8.612;2023-06-22T00:25:09;25.00;83.30
1107;DHT22;540;49.448;8.612;2023-06-22T00:27:39;25.00;83.20
1107;DHT22;540;49.448;8.612;2023-06-22T00:30:08;25.00;83.40
1107;DHT22;540;49.448;8.612;2023-06-22T00:32:36;25.00;84.40
1107;DHT22;540;49.448;8.612;2023-06-22T00:35:04;24.90;85.80
1107;DHT22;540;49.448;8.612;2023-06-22T00:37:32;24.80;87.40
1107;DHT22;540;49.448;8.612;2023-06-22T00:40:02;24.70;88.50
1107;DHT22;540;49.448;8.612;2023-06-22T00:42:31;24.60;89.10
1107;DHT22;540;49.448;8.612;2023-06-22T00:45:00;24.60;90.00
1107;DHT22;540;49.448;8.612;2023-06-22T00:47:28;24.50;91.10
1107;DHT22;540;49.448;8.612;2023-06-22T00:49:56;24.40;91.80
1107;DHT22;540;49.448;8.612;2023-06-22T00:52:24;24.20;92.70
1107;DHT22;540;49.448;8.612;2023-06-22T00:54:56;24.10;93.00
1107;DHT22;540;49.448;8.612;2023-06-22T00:57:24;24.00;93.10
1107;DHT22;540;49.448;8.612;2023-06-22T00:59:54;24.00;93.70
1107;DHT22;540;49.448;8.612;2023-06-22T01:02:24;24.10;97.10
1107;DHT22;540;49.448;8.612;2023-06-22T01:04:52;24.00;98.00
1107;DHT22;540;49.448;8.612;2023-06-22T01:07:26;23.80;99.90
1107;DHT22;540;49.448;8.612;2023-06-22T01:10:02;23.60;99.90
1107;DHT22;540;49.448;8.612;2023-06-22T01:12:34;23.30;99.90
1107;DHT22;540;49.448;8.612;2023-06-22T01:15:07;23.00;99.90
1107;DHT22;540;49.448;8.612;2023-06-22T01:17:40;22.70;99.90
1107;DHT22;540;49.448;8.612;2023-06-22T01:20:09;22.70;99.90
1107;DHT22;540;49.448;8.612;2023-06-22T01:22:46;22.70;99.90
1107;DHT22;540;49.448;8.612;2023-06-22T01:25:21;22.90;99.90
1107;DHT22;540;49.448;8.612;2023-06-22T01:27:56;22.90;99.90
1107;DHT22;540;49.448;8.612;2023-06-22T01:30:30;22.90;99.90
1107;DHT22;540;49.448;8.612;2023-06-22T01:32:59;22.90;99.90
1107;DHT22;540;49.448;8.612;2023-06-22T01:35:28;22.90;99.90
1107;DHT22;540;49.448;8.612;2023-06-22T01:37:56;22.90;99.90
1107;DHT22;540;49.448;8.612;2023-06-22T01:40:24;23.00;99.90
1107;DHT22;540;49.448;8.612;2023-06-22T01:42:54;23.00;99.90
1107;DHT22;540;49.448;8.612;2023-06-22T01:45:22;23.00;99.90
1107;DHT22;540;49.448;8.612;2023-06-22T01:47:52;23.00;99.90
1107;DHT22;540;49.448;8.612;2023-06-22T01:50:20;23.00;99.90
1107;DHT22;540;49.448;8.612;2023-06-22T01:52:48;23.00;99.90
1107;DHT22;540;49.448;8.612;2023-06-22T01:55:16;23.00;99.90
1107;DHT22;540;49.448;8.612;2023-06-22T01:57:44;23.00;99.90
1107;DHT22;540;49.448;8.612;2023-06-22T02:00:16;23.00;99.90
1107;DHT22;540;49.448;8.612;2023-06-22T02:02:54;23.00;99.90
1107;DHT22;540;49.448;8.612;2023-06-22T02:05:29;23.00;99.90
1107;DHT22;540;49.448;8.612;2023-06-22T02:08:02;22.80;99.90
1107;DHT22;540;49.448;8.612;2023-06-22T02:10:34;22.80;99.90
1107;DHT22;540;49.448;8.612;2023-06-22T02:13:06;22.70;99.90
1107;DHT22;540;49.448;8.612;2023-06-22T02:15:34;22.70;99.90
1107;DHT22;540;49.448;8.612;2023-06-22T02:18:04;22.70;99.90
1107;DHT22;540;49.448;8.612;2023-06-22T02:20:32;22.70;99.90
1107;DHT22;540;49.448;8.612;2023-06-22T02:23:04;22.80;99.90
1107;DHT22;540;49.448;8.612;2023-06-22T02:25:32;22.80;99.90
1107;DHT22;540;49.448;8.612;2023-06-22T02:28:00;22.80;99.90
1107;DHT22;540;49.448;8.612;2023-06-22T02:30:28;22.70;99.90
1107;DHT22;540;49.448;8.612;2023-06-22T02:32:56;22.80;99.90
1107;DHT22;540;49.448;8.612;2023-06-22T02:35:28;22.70;99.90
1107;DHT22;540;49.448;8.612;2023-06-22T02:37:58;22.60;99.90
1107;DHT22;540;49.448;8.612;2023-06-22T02:40:26;22.60;99.90
1107;DHT22;540;49.448;8.612;2023-06-22T02:42:54;22.60;99.90
1107;DHT22;540;49.448;8.612;2023-06-22T02:45:24;22.50;99.90
1107;DHT22;540;49.448;8.612;2023-06-22T02:47:52;22.70;99.90
1107;DHT22;540;49.448;8.612;2023-06-22T02:50:20;22.50;99.90
1107;DHT22;540;49.448;8.612;2023-06-22T02:52:49;22.40;99.90
1107;DHT22;540;49.448;8.612;2023-06-22T02:55:17;22.30;99.90
1107;DHT22;540;49.448;8.612;2023-06-22T02:57:45;22.20;99.90
1107;DHT22;540;49.448;8.612;2023-06-22T03:00:14;22.20;99.90
1107;DHT22;540;49.448;8.612;2023-06-22T03:02:44;22.10;99.90
1107;DHT22;540;49.448;8.612;2023-06-22T03:05:12;22.20;99.90
1107;DHT22;540;49.448;8.612;2023-06-22T03:07:41;22.20;99.90
1107;DHT22;540;49.448;8.612;2023-06-22T03:10:11;22.20;99.90
1107;DHT22;540;49.448;8.612;2023-06-22T03:12:40;22.20;99.90
1107;DHT22;540;49.448;8.612;2023-06-22T03:15:10;22.10;99.90
1107;DHT22;540;49.448;8.612;2023-06-22T03:17:39;22.10;99.90
1107;DHT22;540;49.448;8.612;2023-06-22T03:20:08;22.20;99.90
1107;DHT22;540;49.448;8.612;2023-06-22T03:22:38;22.10;99.90
1107;DHT22;540;49.448;8.612;2023-06-22T03:25:07;22.20;99.90
1107;DHT22;540;49.448;8.612;2023-06-22T03:27:38;22.10;99.90
1107;DHT22;540;49.448;8.612;2023-06-22T03:30:08;22.20;99.90
1107;DHT22;540;49.448;8.612;2023-06-22T03:32:36;22.30;99.90
1107;DHT22;540;49.448;8.612;2023-06-22T03:35:05;22.10;99.90
1107;DHT22;540;49.448;8.612;2023-06-22T03:37:33;22.30;99.90
1107;DHT22;540;49.448;8.612;2023-06-22T03:40:00;22.10;99.90
1107;DHT22;540;49.448;8.612;2023-06-22T03:42:29;22.20;99.90
1107;DHT22;540;49.448;8.612;2023-06-22T03:44:58;22.20;99.90
1107;DHT22;540;49.448;8.612;2023-06-22T03:47:27;22.10;99.90
1107;DHT22;540;49.448;8.612;2023-06-22T03:49:55;22.20;99.90
1107;DHT22;540;49.448;8.612;2023-06-22T03:52:23;22.20;99.90
1107;DHT22;540;49.448;8.612;2023-06-22T03:54:51;22.20;99.90
1107;DHT22;540;49.448;8.612;2023-06-22T03:57:19;22.20;99.90
1107;DHT22;540;49.448;8.612;2023-06-22T03:59:47;22.10;99.90
1107;DHT22;540;49.448;8.612;2023-06-22T04:02:16;22.20;99.90
1107;DHT22;540;49.448;8.612;2023-06-22T04:04:44;22.20;99.90
1107;DHT22;540;49.448;8.612;2023-06-22T04:07:12;22.20;99.90
1107;DHT22;540;49.448;8.612;2023-06-22T04:09:40;22.20;99.90
1107;DHT22;540;49.448;8.612;2023-06-22T04:12:08;22.20;99.90
1107;DHT22;540;49.448;8.612;2023-06-22T04:14:36;22.20;99.90
1107;DHT22;540;49.448;8.612;2023-06-22T04:17:04;22.40;99.90
1107;DHT22;540;49.448;8.612;2023-06-22T04:19:33;22.40;99.90
1107;DHT22;540;49.448;8.612;2023-06-22T04:22:01;22.50;99.90
1107;DHT22;540;49.448;8.612;2023-06-22T04:24:29;22.50;99.90
1107;DHT22;540;49.448;8.612;2023-06-22T04:26:57;22.60;99.90
1107;DHT22;540;49.448;8.612;2023-06-22T04:29:29;22.70;99.90
1107;DHT22;540;49.448;8.612;2023-06-22T04:31:57;22.70;99.90
1107;DHT22;540;49.448;8.612;2023-06-22T04:34:33;22.80;99.90
1107;DHT22;540;49.448;8.612;2023-06-22T04:37:00;22.80;99.90
1107;DHT22;540;49.448;8.612;2023-06-22T04:39:28;22.80;99.90
1107;DHT22;540;49.448;8.612;2023-06-22T04:41:56;23.00;99.90
1107;DHT22;540;49.448;8.612;2023-06-22T04:44:26;23.00;99.90
1107;DHT22;540;49.448;8.612;2023-06-22T04:46:57;23.20;99.90
1107;DHT22;540;49.448;8.612;2023-06-22T04:49:30;23.30;99.90
1107;DHT22;540;49.448;8.612;2023-06-22T04:52:02;23.40;99.90
1107;DHT22;540;49.448;8.612;2023-06-22T04:54:30;23.40;99.90
1107;DHT22;540;49.448;8.612;2023-06-22T04:56:59;23.50;99.90
1107;DHT22;540;49.448;8.612;2023-06-22T04:59:28;23.50;99.90
1107;DHT22;540;49.448;8.612;2023-06-22T05:01:57;23.50;99.90
1107;DHT22;540;49.448;8.612;2023-06-22T05:04:26;23.50;99.90
1107;DHT22;540;49.448;8.612;2023-06-22T05:06:54;23.50;99.90
1107;DHT22;540;49.448;8.612;2023-06-22T05:09:24;23.70;99.90
1107;DHT22;540;49.448;8.612;2023-06-22T05:11:52;23.90;99.90
1107;DHT22;540;49.448;8.612;2023-06-22T05:14:20;24.00;99.90
1107;DHT22;540;49.448;8.612;2023-06-22T05:16:48;24.20;98.50
1107;DHT22;540;49.448;8.612;2023-06-22T05:19:18;24.40;97.40
1107;DHT22;540;49.448;8.612;2023-06-22T05:21:46;25.40;93.80
1107;DHT22;540;49.448;8.612;2023-06-22T05:24:14;26.90;87.70
1107;DHT22;540;49.448;8.612;2023-06-22T05:26:43;28.10;81.20
1107;DHT22;540;49.448;8.612;2023-06-22T05:29:28;28.80;75.60
1107;DHT22;540;49.448;8.612;2023-06-22T05:31:56;29.10;73.70
1107;DHT22;540;49.448;8.612;2023-06-22T05:34:24;29.50;72.20
1107;DHT22;540;49.448;8.612;2023-06-22T05:36:52;29.90;68.30
1107;DHT22;540;49.448;8.612;2023-06-22T05:39:20;30.40;67.00
1107;DHT22;540;49.448;8.612;2023-06-22T05:41:49;30.50;65.50
1107;DHT22;540;49.448;8.612;2023-06-22T05:44:17;30.70;64.50
1107;DHT22;540;49.448;8.612;2023-06-22T05:46:45;31.10;62.70
1107;DHT22;540;49.448;8.612;2023-06-22T05:49:13;31.50;60.80
1107;DHT22;540;49.448;8.612;2023-06-22T05:51:42;32.00;58.90
1107;DHT22;540;49.448;8.612;2023-06-22T05:54:10;32.20;57.30
1107;DHT22;540;49.448;8.612;2023-06-22T05:56:40;32.60;55.50
1107;DHT22;540;49.448;8.612;2023-06-22T05:59:09;32.80;54.10
1107;DHT22;540;49.448;8.612;2023-06-22T06:01:37;33.00;53.20
1107;DHT22;540;49.448;8.612;2023-06-22T06:04:06;33.30;52.70
1107;DHT22;540;49.448;8.612;2023-06-22T06:06:35;33.70;52.00
1107;DHT22;540;49.448;8.612;2023-06-22T06:09:04;33.80;50.50
1107;DHT22;540;49.448;8.612;2023-06-22T06:11:33;34.00;49.90
1107;DHT22;540;49.448;8.612;2023-06-22T06:14:01;34.00;49.50
1107;DHT22;540;49.448;8.612;2023-06-22T06:16:30;34.20;48.80
1107;DHT22;540;49.448;8.612;2023-06-22T06:18:59;34.40;48.70
1107;DHT22;540;49.448;8.612;2023-06-22T06:21:26;34.70;48.10
1107;DHT22;540;49.448;8.612;2023-06-22T06:23:57;35.00;46.40
1107;DHT22;540;49.448;8.612;2023-06-22T06:26:25;34.90;45.60
1107;DHT22;540;49.448;8.612;2023-06-22T06:28:56;35.00;46.00
1107;DHT22;540;49.448;8.612;2023-06-22T06:31:25;35.40;45.70
1107;DHT22;540;49.448;8.612;2023-06-22T06:33:56;35.50;44.50
1107;DHT22;540;49.448;8.612;2023-06-22T06:36:24;35.50;44.10
1107;DHT22;540;49.448;8.612;2023-06-22T06:38:52;36.00;43.20
1107;DHT22;540;49.448;8.612;2023-06-22T06:41:20;36.00;43.30
1107;DHT22;540;49.448;8.612;2023-06-22T06:43:48;35.70;44.20
1107;DHT22;540;49.448;8.612;2023-06-22T06:46:16;36.10;43.50
1107;DHT22;540;49.448;8.612;2023-06-22T06:48:45;36.40;42.90
1107;DHT22;540;49.448;8.612;2023-06-22T06:51:14;36.70;41.50
1107;DHT22;540;49.448;8.612;2023-06-22T06:53:42;36.40;41.10
1107;DHT22;540;49.448;8.612;2023-06-22T06:56:10;36.60;41.40
1107;DHT22;540;49.448;8.612;2023-06-22T06:58:40;36.40;41.20
1107;DHT22;540;49.448;8.612;2023-06-22T07:01:09;36.30;41.50
1107;DHT22;540;49.448;8.612;2023-06-22T07:03:37;34.70;42.10
1107;DHT22;540;49.448;8.612;2023-06-22T07:06:05;34.50;42.50
1107;DHT22;540;49.448;8.612;2023-06-22T07:08:34;34.40;43.00
1107;DHT22;540;49.448;8.612;2023-06-22T07:11:03;35.00;42.40
1107;DHT22;540;49.448;8.612;2023-06-22T07:13:31;35.20;42.80
1107;DHT22;540;49.448;8.612;2023-06-22T07:16:00;34.60;43.00
1107;DHT22;540;49.448;8.612;2023-06-22T07:18:28;34.30;43.40
1107;DHT22;540;49.448;8.612;2023-06-22T07:20:55;33.90;43.80
1107;DHT22;540;49.448;8.612;2023-06-22T07:23:23;33.90;45.60
1107;DHT22;540;49.448;8.612;2023-06-22T07:25:52;34.50;44.50
1107;DHT22;540;49.448;8.612;2023-06-22T07:28:20;35.00;43.10
1107;DHT22;540;49.448;8.612;2023-06-22T07:30:48;35.70;42.00
1107;DHT22;540;49.448;8.612;2023-06-22T07:33:17;35.60;42.80
1107;DHT22;540;49.448;8.612;2023-06-22T07:35:46;36.00;41.80
1107;DHT22;540;49.448;8.612;2023-06-22T07:38:15;36.40;41.00
1107;DHT22;540;49.448;8.612;2023-06-22T07:40:42;36.50;39.00
1107;DHT22;540;49.448;8.612;2023-06-22T07:43:12;36.40;38.80
1107;DHT22;540;49.448;8.612;2023-06-22T07:45:40;36.00;38.70
1107;DHT22;540;49.448;8.612;2023-06-22T07:48:09;35.50;39.70
1107;DHT22;540;49.448;8.612;2023-06-22T07:50:37;35.30;40.80
1107;DHT22;540;49.448;8.612;2023-06-22T07:53:05;36.00;40.20
1107;DHT22;540;49.448;8.612;2023-06-22T07:55:33;36.90;38.80
1107;DHT22;540;49.448;8.612;2023-06-22T07:58:00;35.90;40.50
1107;DHT22;540;49.448;8.612;2023-06-22T08:00:30;35.50;42.20
1107;DHT22;540;49.448;8.612;2023-06-22T08:02:58;35.80;41.20
1107;DHT22;540;49.448;8.612;2023-06-22T08:05:28;36.70;39.60
1107;DHT22;540;49.448;8.612;2023-06-22T08:07:58;36.80;38.90
1107;DHT22;540;49.448;8.612;2023-06-22T08:10:28;37.20;38.20
1107;DHT22;540;49.448;8.612;2023-06-22T08:12:57;37.30;36.00
1107;DHT22;540;49.448;8.612;2023-06-22T08:15:29;37.80;35.00
1107;DHT22;540;49.448;8.612;2023-06-22T08:18:00;38.10;34.80
1107;DHT22;540;49.448;8.612;2023-06-22T08:20:30;37.60;34.60
1107;DHT22;540;49.448;8.612;2023-06-22T08:23:00;38.10;33.90
1107;DHT22;540;49.448;8.612;2023-06-22T08:25:34;38.20;34.10
1107;DHT22;540;49.448;8.612;2023-06-22T08:28:04;38.10;33.20
1107;DHT22;540;49.448;8.612;2023-06-22T08:30:36;38.50;33.60
1107;DHT22;540;49.448;8.612;2023-06-22T08:33:06;38.40;32.50
1107;DHT22;540;49.448;8.612;2023-06-22T08:35:38;38.50;33.00
1107;DHT22;540;49.448;8.612;2023-06-22T08:38:08;38.80;32.80
1107;DHT22;540;49.448;8.612;2023-06-22T08:40:43;39.10;31.90
1107;DHT22;540;49.448;8.612;2023-06-22T08:43:13;39.30;31.90
1107;DHT22;540;49.448;8.612;2023-06-22T08:45:45;39.60;32.10
1107;DHT22;540;49.448;8.612;2023-06-22T08:48:15;39.50;32.70
1107;DHT22;540;49.448;8.612;2023-06-22T08:50:44;39.50;33.10
1107;DHT22;540;49.448;8.612;2023-06-22T08:53:13;39.40;33.10
1107;DHT22;540;49.448;8.612;2023-06-22T08:55:43;39.30;33.20
1107;DHT22;540;49.448;8.612;2023-06-22T08:58:12;39.30;32.50
1107;DHT22;540;49.448;8.612;2023-06-22T09:00:40;39.30;32.20
1107;DHT22;540;49.448;8.612;2023-06-22T09:03:09;39.70;31.70
1107;DHT22;540;49.448;8.612;2023-06-22T09:05:37;39.50;31.80
1107;DHT22;540;49.448;8.612;2023-06-22T09:08:05;39.10;32.30
1107;DHT22;540;49.448;8.612;2023-06-22T09:10:33;38.90;33.10
1107;DHT22;540;49.448;8.612;2023-06-22T09:13:01;38.70;33.20
1107;DHT22;540;49.448;8.612;2023-06-22T09:15:29;38.80;31.60
1107;DHT22;540;49.448;8.612;2023-06-22T09:17:57;38.10;32.90
1107;DHT22;540;49.448;8.612;2023-06-22T09:20:27;37.50;33.70
1107;DHT22;540;49.448;8.612;2023-06-22T09:22:55;36.60;35.50
1107;DHT22;540;49.448;8.612;2023-06-22T09:25:23;36.80;35.50
1107;DHT22;540;49.448;8.612;2023-06-22T09:27:51;37.00;35.60
1107;DHT22;540;49.448;8.612;2023-06-22T09:30:19;37.10;35.20
1107;DHT22;540;49.448;8.612;2023-06-22T09:32:47;36.40;36.20
1107;DHT22;540;49.448;8.612;2023-06-22T09:35:15;35.60;38.10
1107;DHT22;540;49.448;8.612;2023-06-22T09:37:44;35.00;39.50
1107;DHT22;540;49.448;8.612;2023-06-22T09:40:12;34.80;39.80
1107;DHT22;540;49.448;8.612;2023-06-22T09:42:42;35.10;39.80
1107;DHT22;540;49.448;8.612;2023-06-22T09:45:10;35.40;38.90
1107;DHT22;540;49.448;8.612;2023-06-22T09:47:38;35.90;38.50
1107;DHT22;540;49.448;8.612;2023-06-22T09:50:06;35.80;38.20
1107;DHT22;540;49.448;8.612;2023-06-22T09:52:35;36.00;38.30
1107;DHT22;540;49.448;8.612;2023-06-22T09:55:08;36.50;38.80
1107;DHT22;540;49.448;8.612;2023-06-22T09:57:36;36.50;38.00
1107;DHT22;540;49.448;8.612;2023-06-22T10:00:04;36.40;38.30
1107;DHT22;540;49.448;8.612;2023-06-22T10:02:36;36.60;38.40
1107;DHT22;540;49.448;8.612;2023-06-22T10:05:04;36.60;38.10
1107;DHT22;540;49.448;8.612;2023-06-22T10:07:32;36.90;38.00
1107;DHT22;540;49.448;8.612;2023-06-22T10:10:00;36.70;38.00
1107;DHT22;540;49.448;8.612;2023-06-22T10:12:30;36.40;38.70
1107;DHT22;540;49.448;8.612;2023-06-22T10:14:58;36.10;38.90
1107;DHT22;540;49.448;8.612;2023-06-22T10:17:26;35.80;38.90
1107;DHT22;540;49.448;8.612;2023-06-22T10:19:54;34.80;41.10
1107;DHT22;540;49.448;8.612;2023-06-22T10:22:22;34.30;42.50
1107;DHT22;540;49.448;8.612;2023-06-22T10:24:49;33.70;43.40
1107;DHT22;540;49.448;8.612;2023-06-22T10:27:17;33.50;44.60
1107;DHT22;540;49.448;8.612;2023-06-22T10:29:46;33.50;45.30
1107;DHT22;540;49.448;8.612;2023-06-22T10:32:14;33.70;45.30
1107;DHT22;540;49.448;8.612;2023-06-22T10:34:42;33.60;45.20
1107;DHT22;540;49.448;8.612;2023-06-22T10:37:09;33.30;46.10
1107;DHT22;540;49.448;8.612;2023-06-22T10:39:37;33.20;46.30
1107;DHT22;540;49.448;8.612;2023-06-22T10:42:05;33.10;46.30
1107;DHT22;540;49.448;8.612;2023-06-22T10:44:33;32.70;47.00
1107;DHT22;540;49.448;8.612;2023-06-22T10:47:03;32.40;48.50
1107;DHT22;540;49.448;8.612;2023-06-22T10:49:30;32.00;49.30
1107;DHT22;540;49.448;8.612;2023-06-22T10:51:58;32.10;50.30
1107;DHT22;540;49.448;8.612;2023-06-22T10:54:26;32.70;49.40
1107;DHT22;540;49.448;8.612;2023-06-22T10:56:54;33.20;48.00
1107;DHT22;540;49.448;8.612;2023-06-22T10:59:21;33.50;47.10
1107;DHT22;540;49.448;8.612;2023-06-22T11:01:50;33.90;46.40
1107;DHT22;540;49.448;8.612;2023-06-22T11:04:19;34.40;44.70
1107;DHT22;540;49.448;8.612;2023-06-22T11:06:47;34.50;44.10
1107;DHT22;540;49.448;8.612;2023-06-22T11:09:15;34.10;45.80
1107;DHT22;540;49.448;8.612;2023-06-22T11:11:53;34.20;45.60
1107;DHT22;540;49.448;8.612;2023-06-22T11:14:21;34.60;44.70
1107;DHT22;540;49.448;8.612;2023-06-22T11:16:49;34.30;45.40
1107;DHT22;540;49.448;8.612;2023-06-22T11:19:18;34.50;44.70
1107;DHT22;540;49.448;8.612;2023-06-22T11:21:46;34.70;43.50
1107;DHT22;540;49.448;8.612;2023-06-22T11:24:14;34.80;42.80
1107;DHT22;540;49.448;8.612;2023-06-22T11:26:42;34.60;43.30
1107;DHT22;540;49.448;8.612;2023-06-22T11:29:10;34.20;43.20
1107;DHT22;540;49.448;8.612;2023-06-22T11:31:58;33.90;44.00
1107;DHT22;540;49.448;8.612;2023-06-22T11:34:27;33.70;44.00
1107;DHT22;540;49.448;8.612;2023-06-22T11:36:55;33.60;44.80
1107;DHT22;540;49.448;8.612;2023-06-22T11:39:22;33.60;45.10
1107;DHT22;540;49.448;8.612;2023-06-22T11:42:07;33.70;44.80
1107;DHT22;540;49.448;8.612;2023-06-22T11:44:35;34.00;44.00
1107;DHT22;540;49.448;8.612;2023-06-22T11:47:03;34.60;42.80
1107;DHT22;540;49.448;8.612;2023-06-22T11:49:33;34.70;43.00
1107;DHT22;540;49.448;8.612;2023-06-22T11:52:01;34.90;42.50
1107;DHT22;540;49.448;8.612;2023-06-22T11:54:29;35.10;41.90
1107;DHT22;540;49.448;8.612;2023-06-22T11:57:00;34.90;41.20
1107;DHT22;540;49.448;8.612;2023-06-22T11:59:28;34.80;41.30
1107;DHT22;540;49.448;8.612;2023-06-22T12:01:56;34.40;42.20
1107;DHT22;540;49.448;8.612;2023-06-22T12:04:25;34.20;42.60
1107;DHT22;540;49.448;8.612;2023-06-22T12:06:54;34.00;43.30
1107;DHT22;540;49.448;8.612;2023-06-22T12:09:22;33.90;43.80
1107;DHT22;540;49.448;8.612;2023-06-22T12:11:49;33.90;44.40
1107;DHT22;540;49.448;8.612;2023-06-22T12:14:17;33.70;44.60
1107;DHT22;540;49.448;8.612;2023-06-22T12:16:45;33.60;45.20
1107;DHT22;540;49.448;8.612;2023-06-22T12:19:13;33.50;45.40
1107;DHT22;540;49.448;8.612;2023-06-22T12:21:40;33.90;44.90
1107;DHT22;540;49.448;8.612;2023-06-22T12:24:13;34.00;43.90
1107;DHT22;540;49.448;8.612;2023-06-22T12:26:41;34.10;44.20
1107;DHT22;540;49.448;8.612;2023-06-22T12:29:09;34.00;43.70
1107;DHT22;540;49.448;8.612;2023-06-22T12:31:37;34.00;43.70
1107;DHT22;540;49.448;8.612;2023-06-22T12:34:05;34.00;43.90
1107;DHT22;540;49.448;8.612;2023-06-22T12:36:33;33.90;44.50
1107;DHT22;540;49.448;8.612;2023-06-22T12:39:00;33.70;43.80
1107;DHT22;540;49.448;8.612;2023-06-22T12:41:30;34.00;42.50
1107;DHT22;540;49.448;8.612;2023-06-22T12:43:58;34.10;42.30
1107;DHT22;540;49.448;8.612;2023-06-22T12:46:25;34.20;41.70
1107;DHT22;540;49.448;8.612;2023-06-22T12:48:53;34.40;41.50
1107;DHT22;540;49.448;8.612;2023-06-22T12:51:21;34.80;41.40
1107;DHT22;540;49.448;8.612;2023-06-22T12:53:50;34.90;41.30
1107;DHT22;540;49.448;8.612;2023-06-22T12:56:17;35.10;41.80
1107;DHT22;540;49.448;8.612;2023-06-22T12:58:47;34.80;41.60
1107;DHT22;540;49.448;8.612;2023-06-22T13:01:14;34.30;42.30
1107;DHT22;540;49.448;8.612;2023-06-22T13:03:44;34.20;42.80
1107;DHT22;540;49.448;8.612;2023-06-22T13:06:12;34.10;43.70
1107;DHT22;540;49.448;8.612;2023-06-22T13:08:40;34.00;44.80
1107;DHT22;540;49.448;8.612;2023-06-22T13:11:11;33.70;45.00
1107;DHT22;540;49.448;8.612;2023-06-22T13:13:39;33.40;45.90
1107;DHT22;540;49.448;8.612;2023-06-22T13:16:09;33.30;46.20
1107;DHT22;540;49.448;8.612;2023-06-22T13:18:37;33.20;46.70
1107;DHT22;540;49.448;8.612;2023-06-22T13:21:05;33.10;46.90
1107;DHT22;540;49.448;8.612;2023-06-22T13:23:33;32.90;47.00
1107;DHT22;540;49.448;8.612;2023-06-22T13:26:01;32.90;47.40
1107;DHT22;540;49.448;8.612;2023-06-22T13:28:29;32.80;47.80
1107;DHT22;540;49.448;8.612;2023-06-22T13:30:57;32.80;48.00
1107;DHT22;540;49.448;8.612;2023-06-22T13:33:26;33.10;47.60
1107;DHT22;540;49.448;8.612;2023-06-22T13:36:12;33.30;47.10
1107;DHT22;540;49.448;8.612;2023-06-22T13:38:39;33.60;46.00
1107;DHT22;540;49.448;8.612;2023-06-22T13:41:07;33.50;46.30
1107;DHT22;540;49.448;8.612;2023-06-22T13:43:53;33.40;46.30
1107;DHT22;540;49.448;8.612;2023-06-22T13:46:38;33.50;46.40
1107;DHT22;540;49.448;8.612;2023-06-22T13:49:25;33.20;46.20
1107;DHT22;540;49.448;8.612;2023-06-22T13:51:53;33.30;46.50
1107;DHT22;540;49.448;8.612;2023-06-22T13:54:21;33.20;46.60
1107;DHT22;540;49.448;8.612;2023-06-22T13:56:55;33.30;47.10
1107;DHT22;540;49.448;8.612;2023-06-22T13:59:23;33.50;46.80
1107;DHT22;540;49.448;8.612;2023-06-22T14:01:53;33.40;46.60
1107;DHT22;540;49.448;8.612;2023-06-22T14:04:22;33.10;47.10
1107;DHT22;540;49.448;8.612;2023-06-22T14:06:52;33.00;47.60
1107;DHT22;540;49.448;8.612;2023-06-22T14:09:22;32.90;47.90
1107;DHT22;540;49.448;8.612;2023-06-22T14:11:50;32.80;48.10
1107;DHT22;540;49.448;8.612;2023-06-22T14:14:18;32.60;48.10
1107;DHT22;540;49.448;8.612;2023-06-22T14:16:46;32.40;48.50
1107;DHT22;540;49.448;8.612;2023-06-22T14:19:17;32.30;48.80
1107;DHT22;540;49.448;8.612;2023-06-22T14:21:45;32.30;49.30
1107;DHT22;540;49.448;8.612;2023-06-22T14:24:14;32.20;49.30
1107;DHT22;540;49.448;8.612;2023-06-22T14:26:42;32.00;49.70
1107;DHT22;540;49.448;8.612;2023-06-22T14:29:10;31.80;50.20
1107;DHT22;540;49.448;8.612;2023-06-22T14:31:38;31.70;50.50
1107;DHT22;540;49.448;8.612;2023-06-22T14:34:06;31.80;51.00
1107;DHT22;540;49.448;8.612;2023-06-22T14:36:33;31.70;50.90
1107;DHT22;540;49.448;8.612;2023-06-22T14:39:01;31.80;51.00
1107;DHT22;540;49.448;8.612;2023-06-22T14:41:31;31.80;51.10
1107;DHT22;540;49.448;8.612;2023-06-22T14:43:59;31.80;51.20
1107;DHT22;540;49.448;8.612;2023-06-22T14:46:27;31.60;50.80
1107;DHT22;540;49.448;8.612;2023-06-22T14:48:55;31.50;51.70
1107;DHT22;540;49.448;8.612;2023-06-22T14:51:23;31.40;52.30
1107;DHT22;540;49.448;8.612;2023-06-22T14:53:51;31.30;52.30
1107;DHT22;540;49.448;8.612;2023-06-22T14:56:19;31.20;52.90
1107;DHT22;540;49.448;8.612;2023-06-22T14:58:48;31.00;53.10
1107;DHT22;540;49.448;8.612;2023-06-22T15:01:17;30.90;53.40
1107;DHT22;540;49.448;8.612;2023-06-22T15:03:45;30.80;53.90
1107;DHT22;540;49.448;8.612;2023-06-22T15:06:13;30.80;54.40
1107;DHT22;540;49.448;8.612;2023-06-22T15:08:41;30.70;54.50
1107;DHT22;540;49.448;8.612;2023-06-22T15:11:09;30.70;54.70
1107;DHT22;540;49.448;8.612;2023-06-22T15:13:39;30.60;54.80
1107;DHT22;540;49.448;8.612;2023-06-22T15:16:08;30.60;55.20
1107;DHT22;540;49.448;8.612;2023-06-22T15:18:37;30.70;55.20
1107;DHT22;540;49.448;8.612;2023-06-22T15:21:07;30.90;55.20
1107;DHT22;540;49.448;8.612;2023-06-22T15:23:35;31.10;55.00
1107;DHT22;540;49.448;8.612;2023-06-22T15:26:03;31.30;54.90
1107;DHT22;540;49.448;8.612;2023-06-22T15:28:32;31.50;54.40
1107;DHT22;540;49.448;8.612;2023-06-22T15:31:02;31.50;54.90
1107;DHT22;540;49.448;8.612;2023-06-22T15:33:31;31.50;54.70
1107;DHT22;540;49.448;8.612;2023-06-22T15:35:59;31.50;54.60
1107;DHT22;540;49.448;8.612;2023-06-22T15:38:30;31.60;54.20
1107;DHT22;540;49.448;8.612;2023-06-22T15:40:58;31.70;53.70
1107;DHT22;540;49.448;8.612;2023-06-22T15:43:26;31.60;53.60
1107;DHT22;540;49.448;8.612;2023-06-22T15:45:54;31.60;52.50
1107;DHT22;540;49.448;8.612;2023-06-22T15:48:22;31.50;52.80
1107;DHT22;540;49.448;8.612;2023-06-22T15:50:51;31.60;52.50
1107;DHT22;540;49.448;8.612;2023-06-22T15:53:19;31.50;52.50
1107;DHT22;540;49.448;8.612;2023-06-22T15:55:46;31.50;53.10
1107;DHT22;540;49.448;8.612;2023-06-22T15:58:15;31.40;52.80
1107;DHT22;540;49.448;8.612;2023-06-22T16:00:43;31.20;53.10
1107;DHT22;540;49.448;8.612;2023-06-22T16:03:12;31.10;53.30
1107;DHT22;540;49.448;8.612;2023-06-22T16:05:41;31.10;53.70
1107;DHT22;540;49.448;8.612;2023-06-22T16:08:11;31.20;54.10
1107;DHT22;540;49.448;8.612;2023-06-22T16:10:39;31.40;53.40
1107;DHT22;540;49.448;8.612;2023-06-22T16:13:07;31.40;52.20
1107;DHT22;540;49.448;8.612;2023-06-22T16:15:35;31.30;52.80
1107;DHT22;540;49.448;8.612;2023-06-22T16:18:03;31.30;52.70
1107;DHT22;540;49.448;8.612;2023-06-22T16:20:31;31.40;52.80
1107;DHT22;540;49.448;8.612;2023-06-22T16:22:59;31.10;52.20
1107;DHT22;540;49.448;8.612;2023-06-22T16:25:29;30.90;52.80
1107;DHT22;540;49.448;8.612;2023-06-22T16:27:56;30.70;53.50